createdAt,value
2019-03-08T00:00:20.838Z,20.62
2019-03-08T00:02:53.928Z,22.87
2019-03-08T00:05:25.523Z,18.73
2019-03-08T00:07:56.952Z,19.45
2019-03-08T00:10:28.431Z,21.05
2019-03-08T00:12:59.962Z,23.77
2019-03-08T00:15:31.286Z,23.90
2019-03-08T00:18:02.742Z,25.43
2019-03-08T00:20:34.059Z,19.92
2019-03-08T00:23:06.345Z,20.27
2019-03-08T00:25:37.955Z,23.55
2019-03-08T00:28:09.409Z,20.45
2019-03-08T00:30:40.824Z,19.02
2019-03-08T00:33:12.286Z,23.40
2019-03-08T00:35:43.741Z,21.25
2019-03-08T00:38:15.117Z,21.87
2019-03-08T00:40:46.733Z,22.60
2019-03-08T00:43:18.136Z,21.02
2019-03-08T00:45:49.595Z,24.18
2019-03-08T00:48:21.006Z,22.22
2019-03-08T00:50:52.387Z,20.35
2019-03-08T00:53:23.993Z,21.40
2019-03-08T00:55:55.427Z,26.30
2019-03-08T00:58:26.838Z,24.18
2019-03-08T01:00:58.161Z,22.07
2019-03-08T01:03:29.756Z,21.73
2019-03-08T01:06:01.299Z,22.30
2019-03-08T01:08:32.754Z,21.35
2019-03-08T01:11:04.068Z,20.20
2019-03-08T01:13:35.590Z,21.27
2019-03-08T01:16:07.001Z,23.98
2019-03-08T01:18:38.579Z,22.00
2019-03-08T01:21:09.990Z,24.00
2019-03-08T01:23:41.293Z,24.55
2019-03-08T01:26:13.195Z,22.37
2019-03-08T01:28:44.579Z,24.05
2019-03-08T01:31:16.150Z,23.40
2019-03-08T01:33:47.578Z,23.87
2019-03-08T01:36:19.171Z,23.73
2019-03-08T01:38:50.557Z,22.00
2019-03-08T01:41:22.416Z,21.12
2019-03-08T01:43:53.838Z,28.32
2019-03-08T01:46:25.273Z,21.05
2019-03-08T01:48:56.793Z,20.02
2019-03-08T01:51:28.278Z,20.43
2019-03-08T01:53:59.834Z,19.40
2019-03-08T01:56:31.485Z,20.77
2019-03-08T01:59:02.321Z,21.93
2019-03-08T02:01:33.429Z,17.73
2019-03-08T02:04:05.252Z,18.55
2019-03-08T02:06:36.321Z,20.05
2019-03-08T02:09:07.802Z,18.57
2019-03-08T02:11:39.752Z,22.42
2019-03-08T02:14:11.701Z,18.80
2019-03-08T02:16:42.923Z,15.28
2019-03-08T02:19:13.739Z,15.32
2019-03-08T02:21:44.693Z,16.65
2019-03-08T02:24:15.517Z,17.77
2019-03-08T02:26:46.349Z,19.57
2019-03-08T02:29:17.488Z,20.52
2019-03-08T02:31:48.386Z,15.75
2019-03-08T02:34:19.220Z,17.82
2019-03-08T02:36:50.097Z,17.55
2019-03-08T02:39:20.940Z,16.85
2019-03-08T02:41:53.615Z,16.80
2019-03-08T02:44:24.460Z,18.05
2019-03-08T02:46:55.304Z,12.35
2019-03-08T02:49:26.152Z,15.63
2019-03-08T02:51:57.009Z,13.68
2019-03-08T02:54:28.179Z,16.48
2019-03-08T02:56:59.033Z,16.90
2019-03-08T02:59:29.925Z,15.38
2019-03-08T03:02:00.765Z,14.55
2019-03-08T03:04:31.605Z,12.73
2019-03-08T03:07:02.758Z,12.68
2019-03-08T03:09:33.686Z,13.03
2019-03-08T03:12:04.604Z,14.53
2019-03-08T03:14:35.424Z,14.98
2019-03-08T03:17:06.281Z,15.43
2019-03-08T03:19:37.130Z,18.12
2019-03-08T03:22:07.984Z,13.70
2019-03-08T03:24:38.815Z,13.10
2019-03-08T03:27:09.730Z,14.60
2019-03-08T03:29:40.551Z,14.38
2019-03-08T03:32:11.421Z,15.23
2019-03-08T03:34:42.251Z,11.55
2019-03-08T03:37:13.137Z,12.25
2019-03-08T03:39:44.130Z,13.98
2019-03-08T03:42:14.956Z,12.47
2019-03-08T03:44:45.788Z,13.22
2019-03-08T03:47:16.628Z,11.05
2019-03-08T03:49:47.449Z,17.12
2019-03-08T03:52:18.291Z,15.13
2019-03-08T03:54:49.136Z,14.63
2019-03-08T03:57:20.016Z,13.68
2019-03-08T03:59:50.837Z,13.40
2019-03-08T04:02:22.239Z,13.43
2019-03-08T04:04:53.211Z,12.23
2019-03-08T04:07:24.047Z,15.00
2019-03-08T04:09:54.864Z,13.85
2019-03-08T04:12:25.684Z,14.90
2019-03-08T04:14:56.509Z,15.83
2019-03-08T04:17:27.368Z,14.53
2019-03-08T04:19:58.190Z,10.32
2019-03-08T04:22:29.299Z,12.13
2019-03-08T04:25:00.300Z,15.23
2019-03-08T04:27:31.172Z,14.03
2019-03-08T04:30:02.050Z,15.78
2019-03-08T04:32:32.996Z,13.78
2019-03-08T04:35:04.592Z,15.83
2019-03-08T04:37:36.133Z,14.80
2019-03-08T04:40:08.362Z,16.25
2019-03-08T04:42:39.893Z,13.72
2019-03-08T04:45:12.592Z,12.28
2019-03-08T04:47:44.775Z,14.33
2019-03-08T04:50:16.264Z,11.70
2019-03-08T04:52:47.911Z,14.30
2019-03-08T04:55:19.533Z,11.97
2019-03-08T04:57:57.551Z,10.38
2019-03-08T05:00:33.143Z,11.95
2019-03-08T05:03:09.491Z,13.05
2019-03-08T05:05:39.597Z,14.28
2019-03-08T05:08:11.475Z,16.17
2019-03-08T05:10:42.855Z,13.08
2019-03-08T05:13:14.185Z,13.50
2019-03-08T05:15:47.447Z,12.70
2019-03-08T05:18:18.918Z,14.20
2019-03-08T05:20:50.408Z,15.15
2019-03-08T05:23:21.312Z,11.85
2019-03-08T05:25:52.185Z,12.53
2019-03-08T05:28:23.050Z,14.73
2019-03-08T05:30:53.904Z,13.62
2019-03-08T05:33:24.748Z,17.02
2019-03-08T05:35:55.592Z,15.43
2019-03-08T05:38:26.878Z,16.00
2019-03-08T05:40:57.761Z,16.05
2019-03-08T05:43:28.604Z,17.65
2019-03-08T05:45:59.432Z,14.73
2019-03-08T05:48:30.272Z,12.65
2019-03-08T05:51:01.200Z,17.62
2019-03-08T05:53:32.128Z,14.93
2019-03-08T05:56:02.966Z,15.45
2019-03-08T05:58:33.819Z,14.65
2019-03-08T06:01:04.778Z,17.12
2019-03-08T06:03:35.620Z,13.95
2019-03-08T06:06:06.961Z,15.63
2019-03-08T06:08:37.793Z,16.05
2019-03-08T06:11:08.921Z,14.87
2019-03-08T06:13:39.770Z,13.85
2019-03-08T06:16:10.680Z,16.60
2019-03-08T06:18:41.511Z,15.03
2019-03-08T06:21:12.363Z,14.75
2019-03-08T06:23:44.523Z,12.03
2019-03-08T06:26:15.309Z,15.35
2019-03-08T06:28:46.158Z,11.85
2019-03-08T06:31:17.226Z,11.63
2019-03-08T06:33:48.053Z,9.68
2019-03-08T06:36:19.272Z,10.70
2019-03-08T06:38:50.124Z,11.22
2019-03-08T06:41:20.925Z,10.08
2019-03-08T06:43:51.777Z,12.60
2019-03-08T06:46:22.613Z,12.45
2019-03-08T06:48:53.632Z,9.88
2019-03-08T06:51:24.440Z,11.55
2019-03-08T06:53:55.263Z,11.53
2019-03-08T06:56:26.073Z,9.90
2019-03-08T06:59:30.913Z,11.05
2019-03-08T07:02:01.727Z,10.15
2019-03-08T07:04:32.577Z,10.05
2019-03-08T07:07:03.411Z,11.08
2019-03-08T07:09:34.626Z,10.98
2019-03-08T07:12:05.433Z,11.43
2019-03-08T07:14:36.380Z,11.00
2019-03-08T07:17:07.189Z,10.63
2019-03-08T07:19:46.862Z,10.63
2019-03-08T07:22:36.504Z,13.32
2019-03-08T07:25:21.010Z,7.97
2019-03-08T07:28:16.252Z,8.80
2019-03-08T07:31:12.024Z,10.45
2019-03-08T07:34:04.380Z,8.23
2019-03-08T07:36:52.958Z,10.43
2019-03-08T07:39:42.493Z,9.20
2019-03-08T07:42:35.082Z,10.98
2019-03-08T07:45:24.407Z,8.40
2019-03-08T07:48:32.421Z,8.08
2019-03-08T07:51:31.176Z,11.38
2019-03-08T07:54:28.260Z,9.10
2019-03-08T07:57:03.495Z,11.18
2019-03-08T08:00:05.201Z,10.35
2019-03-08T08:03:03.302Z,9.63
2019-03-08T08:05:57.344Z,10.40
2019-03-08T08:08:37.968Z,11.43
2019-03-08T08:11:27.639Z,11.28
2019-03-08T08:14:15.708Z,11.90
2019-03-08T08:17:11.408Z,12.53
2019-03-08T08:20:03.892Z,10.05
2019-03-08T08:23:11.768Z,11.70
2019-03-08T08:26:07.633Z,11.90
2019-03-08T08:28:49.861Z,13.13
2019-03-08T08:31:37.240Z,12.10
2019-03-08T08:34:36.193Z,11.33
2019-03-08T08:37:15.292Z,13.48
2019-03-08T08:40:11.217Z,12.80
2019-03-08T08:43:00.864Z,13.10
2019-03-08T08:45:45.344Z,11.43
2019-03-08T08:48:25.381Z,13.00
2019-03-08T08:51:09.629Z,9.25
2019-03-08T08:54:05.140Z,9.25
2019-03-08T08:56:48.380Z,10.78
2019-03-08T08:59:25.760Z,13.18
2019-03-08T09:02:14.486Z,11.97
2019-03-08T09:05:01.429Z,9.03
2019-03-08T09:07:41.806Z,11.00
2019-03-08T09:10:40.468Z,11.55
2019-03-08T09:13:19.424Z,10.35
2019-03-08T09:16:11.933Z,11.33
2019-03-08T09:18:55.193Z,12.60
2019-03-08T09:21:43.339Z,8.00
2019-03-08T09:24:20.816Z,14.70
2019-03-08T09:27:19.748Z,11.93
2019-03-08T09:30:21.292Z,12.40
2019-03-08T09:33:12.417Z,11.83
2019-03-08T09:36:19.985Z,12.90
2019-03-08T09:39:09.653Z,12.58
2019-03-08T09:41:50.240Z,13.68
2019-03-08T09:44:33.789Z,13.68
2019-03-08T09:47:29.796Z,12.28
2019-03-08T09:50:18.068Z,18.85
2019-03-08T09:53:02.399Z,10.60
2019-03-08T09:55:47.960Z,11.68
2019-03-08T09:58:47.024Z,13.20
2019-03-08T10:01:45.863Z,13.45
2019-03-08T10:04:25.653Z,15.90
2019-03-08T10:07:07.856Z,13.15
2019-03-08T10:10:03.336Z,13.90
2019-03-08T10:12:59.138Z,13.80
2019-03-08T10:15:38.881Z,14.63
2019-03-08T10:18:28.659Z,11.43
2019-03-08T10:21:10.604Z,14.73
2019-03-08T10:23:52.104Z,11.08
2019-03-08T10:26:41.578Z,13.18
2019-03-08T10:29:34.368Z,10.30
2019-03-08T10:32:24.206Z,12.13
2019-03-08T10:35:24.029Z,10.45
2019-03-08T10:38:12.277Z,11.50
2019-03-08T10:41:00.866Z,7.42
2019-03-08T10:43:49.396Z,10.20
2019-03-08T10:46:33.834Z,8.40
2019-03-08T10:49:18.500Z,7.65
2019-03-08T10:52:07.672Z,10.82
2019-03-08T10:55:00.421Z,10.15
2019-03-08T10:57:48.473Z,7.75
2019-03-08T11:00:36.820Z,8.65
2019-03-08T11:03:26.588Z,10.35
2019-03-08T11:06:03.844Z,11.75
2019-03-08T11:09:02.356Z,9.05
2019-03-08T11:12:07.436Z,10.23
2019-03-08T11:14:58.643Z,11.03
2019-03-08T11:17:51.037Z,8.78
2019-03-08T11:20:48.575Z,11.22
2019-03-08T11:23:38.557Z,11.83
2019-03-08T11:26:32.312Z,10.58
2019-03-08T11:29:20.736Z,9.10
2019-03-08T11:32:11.531Z,12.78
2019-03-08T11:35:01.438Z,13.18
2019-03-08T11:37:45.713Z,9.20
2019-03-08T11:40:42.408Z,12.95
2019-03-08T11:43:19.322Z,13.03
2019-03-08T11:46:11.986Z,9.05
2019-03-08T11:49:08.118Z,9.93
2019-03-08T11:51:55.716Z,8.63
2019-03-08T11:54:47.989Z,7.90
2019-03-08T11:57:35.911Z,8.08
2019-03-08T12:00:21.179Z,7.45
2019-03-08T12:03:15.365Z,8.50
2019-03-08T12:06:05.041Z,8.48
2019-03-08T12:08:52.001Z,8.33
2019-03-08T12:11:53.873Z,11.30
2019-03-08T12:14:47.701Z,6.78
2019-03-08T12:17:46.360Z,7.60
2019-03-08T12:20:26.357Z,6.33
2019-03-08T12:23:25.329Z,5.70
2019-03-08T12:26:06.024Z,8.18
2019-03-08T12:28:44.017Z,5.40
2019-03-08T12:31:36.206Z,7.03
2019-03-08T12:34:25.974Z,6.92
2019-03-08T12:37:20.012Z,5.65
2019-03-08T12:40:05.192Z,5.95
2019-03-08T12:42:53.773Z,7.83
2019-03-08T12:45:31.729Z,6.37
2019-03-08T12:48:24.443Z,5.37
2019-03-08T12:51:05.320Z,4.85
2019-03-08T12:54:05.242Z,4.83
2019-03-08T12:56:46.516Z,5.78
2019-03-08T12:59:35.136Z,5.60
2019-03-08T13:02:33.785Z,7.47
2019-03-08T13:05:13.033Z,5.28
2019-03-08T13:08:08.888Z,5.00
2019-03-08T13:10:39.713Z,7.95
2019-03-08T13:13:10.572Z,7.08
2019-03-08T13:15:41.460Z,4.17
2019-03-08T13:18:12.277Z,5.58
2019-03-08T13:20:43.107Z,5.80
2019-03-08T13:23:13.985Z,5.83
2019-03-08T13:25:44.816Z,6.20
2019-03-08T13:28:15.644Z,6.15
2019-03-08T13:30:46.466Z,4.42
2019-03-08T13:33:17.412Z,3.60
2019-03-08T13:35:48.248Z,4.28
2019-03-08T13:38:19.116Z,2.67
2019-03-08T13:40:49.915Z,2.77
2019-03-08T13:43:20.753Z,5.85
2019-03-08T13:45:51.565Z,6.12
2019-03-08T13:48:22.372Z,5.72
2019-03-08T13:50:53.184Z,3.87
2019-03-08T13:53:24.032Z,3.92
2019-03-08T13:55:54.844Z,3.42
2019-03-08T13:58:25.696Z,3.02
2019-03-08T14:00:56.501Z,4.53
2019-03-08T14:03:27.316Z,5.15
2019-03-08T14:05:58.149Z,4.53
2019-03-08T14:08:29.962Z,3.95
2019-03-08T14:11:00.790Z,5.45
2019-03-08T14:13:31.601Z,4.20
2019-03-08T14:16:02.516Z,4.58
2019-03-08T14:18:33.364Z,6.10
2019-03-08T14:21:04.288Z,5.03
2019-03-08T14:23:36.117Z,4.47
2019-03-08T14:26:07.232Z,3.72
2019-03-08T14:28:39.312Z,3.77
2019-03-08T14:31:38.433Z,2.65
2019-03-08T14:34:16.649Z,2.77
2019-03-08T14:36:43.218Z,3.90
2019-03-08T14:39:15.431Z,4.53
2019-03-08T14:42:05.335Z,3.75
2019-03-08T14:45:08.889Z,3.87
2019-03-08T14:47:45.883Z,2.75
2019-03-08T14:50:16.828Z,5.00
2019-03-08T14:52:55.381Z,3.08
2019-03-08T14:55:23.915Z,2.83
2019-03-08T14:57:55.348Z,4.53
2019-03-08T15:00:29.243Z,3.25
2019-03-08T15:03:01.152Z,4.50
2019-03-08T15:05:32.013Z,5.75
2019-03-08T15:08:03.122Z,2.90
2019-03-08T15:10:39.368Z,3.75
2019-03-08T15:13:06.460Z,4.00
2019-03-08T15:15:37.301Z,3.08
2019-03-08T15:18:08.329Z,2.75
2019-03-08T15:20:39.172Z,4.12
2019-03-08T15:23:13.376Z,6.60
2019-03-08T15:25:45.214Z,4.35
2019-03-08T15:28:14.896Z,5.33
2019-03-08T15:30:46.023Z,5.12
2019-03-08T15:33:16.936Z,4.90
2019-03-08T15:35:48.477Z,3.87
2019-03-08T15:38:19.396Z,4.95
2019-03-08T15:40:50.307Z,4.60
2019-03-08T15:43:21.217Z,4.10
2019-03-08T15:45:52.041Z,3.95
2019-03-08T15:48:23.862Z,4.62
2019-03-08T15:50:54.689Z,3.90
2019-03-08T15:53:25.496Z,5.20
2019-03-08T15:55:56.333Z,5.28
2019-03-08T15:58:27.136Z,5.62
2019-03-08T16:00:58.078Z,4.08
2019-03-08T16:03:30.078Z,5.92
2019-03-08T16:06:02.930Z,4.97
2019-03-08T16:08:35.844Z,4.95
2019-03-08T16:11:06.372Z,3.77
2019-03-08T16:13:37.172Z,6.10
2019-03-08T16:16:09.157Z,5.00
2019-03-08T16:18:43.484Z,5.00
2019-03-08T16:21:13.310Z,4.83
2019-03-08T16:23:45.212Z,6.50
2019-03-08T16:26:16.033Z,6.83
2019-03-08T16:28:46.728Z,6.60
2019-03-08T16:31:30.692Z,4.67
2019-03-08T16:34:01.594Z,6.35
2019-03-08T16:36:41.173Z,6.97
2019-03-08T16:39:33.889Z,8.53
2019-03-08T16:42:26.548Z,4.87
2019-03-08T16:45:16.235Z,5.42
2019-03-08T16:48:24.307Z,4.87
2019-03-08T16:51:06.313Z,7.58
2019-03-08T16:54:01.858Z,4.47
2019-03-08T16:56:54.579Z,9.60
2019-03-08T16:59:56.679Z,5.95
2019-03-08T17:02:55.149Z,5.58
2019-03-08T17:05:44.857Z,4.83
2019-03-08T17:08:33.253Z,5.15
2019-03-08T17:11:25.553Z,3.45
2019-03-08T17:14:08.156Z,2.58
2019-03-08T17:17:04.068Z,2.75
2019-03-08T17:19:59.868Z,1.75
2019-03-08T17:22:44.980Z,3.17
2019-03-08T17:25:27.115Z,1.75
2019-03-08T17:28:11.214Z,1.52
2019-03-08T17:31:19.262Z,3.62
2019-03-08T17:34:08.972Z,1.72
2019-03-08T17:36:47.324Z,1.70
2019-03-08T17:39:32.900Z,2.25
2019-03-08T17:42:21.484Z,0.90
2019-03-08T17:45:06.950Z,1.67
2019-03-08T17:48:11.728Z,2.12
2019-03-08T17:50:58.901Z,5.33
2019-03-08T17:53:51.637Z,3.10
2019-03-08T17:56:40.188Z,1.45
2019-03-08T17:59:36.046Z,2.20
2019-03-08T18:02:13.649Z,2.30
2019-03-08T18:05:10.995Z,4.25
2019-03-08T18:08:03.467Z,2.98
2019-03-08T18:10:53.250Z,3.12
2019-03-08T18:13:45.961Z,2.70
2019-03-08T18:16:43.528Z,3.60
2019-03-08T18:19:48.489Z,2.55
2019-03-08T18:22:41.145Z,2.62
2019-03-08T18:25:26.493Z,2.98
2019-03-08T18:28:14.769Z,5.28
2019-03-08T18:31:09.656Z,3.62
2019-03-08T18:33:58.989Z,2.67
2019-03-08T18:36:45.213Z,5.05
2019-03-08T18:39:37.822Z,3.37
2019-03-08T18:42:27.521Z,3.17
2019-03-08T18:45:26.491Z,3.80
2019-03-08T18:48:16.206Z,7.08
2019-03-08T18:51:20.776Z,5.92
2019-03-08T18:54:10.473Z,4.90
2019-03-08T18:56:59.019Z,5.58
2019-03-08T18:59:40.973Z,6.80
2019-03-08T19:02:36.424Z,6.28
2019-03-08T19:05:26.275Z,5.47
2019-03-08T19:08:17.617Z,7.03
2019-03-08T19:11:08.012Z,9.23
2019-03-08T19:14:00.566Z,9.08
2019-03-08T19:16:54.134Z,7.47
2019-03-08T19:19:46.869Z,25.65
2019-03-08T19:22:36.570Z,6.78
2019-03-08T19:25:16.334Z,7.15
2019-03-08T19:28:14.750Z,5.97
2019-03-08T19:31:02.115Z,5.78
2019-03-08T19:33:57.795Z,7.20
2019-03-08T19:36:47.858Z,6.53
2019-03-08T19:39:52.808Z,6.87
2019-03-08T19:42:42.346Z,6.35
2019-03-08T19:45:35.474Z,5.10
2019-03-08T19:48:25.254Z,3.87
2019-03-08T19:51:23.897Z,3.95
2019-03-08T19:54:03.696Z,5.50
2019-03-08T19:56:41.180Z,4.62
2019-03-08T19:59:24.949Z,6.00
2019-03-08T20:02:13.386Z,3.62
2019-03-08T20:05:06.170Z,6.60
2019-03-08T20:07:45.888Z,4.12
2019-03-08T20:10:35.661Z,3.90
2019-03-08T20:13:14.578Z,4.08
2019-03-08T20:16:03.246Z,3.80
2019-03-08T20:19:10.340Z,6.75
2019-03-08T20:22:00.833Z,4.12
2019-03-08T20:24:50.484Z,3.65
2019-03-08T20:27:40.174Z,3.22
2019-03-08T20:30:31.964Z,3.58
2019-03-08T20:33:20.738Z,4.12
2019-03-08T20:36:25.660Z,2.77
2019-03-08T20:39:21.920Z,2.50
2019-03-08T20:42:10.296Z,2.25
2019-03-08T20:44:51.508Z,5.15
2019-03-08T20:47:25.598Z,3.10
2019-03-08T20:49:57.489Z,2.52
2019-03-08T20:52:28.325Z,2.02
2019-03-08T20:54:59.140Z,3.65
2019-03-08T20:57:29.985Z,2.87
2019-03-08T21:00:00.776Z,1.70
2019-03-08T21:02:33.801Z,2.52
2019-03-08T21:05:06.573Z,2.85
2019-03-08T21:07:37.497Z,1.67
2019-03-08T21:10:09.368Z,3.10
2019-03-08T21:12:40.193Z,3.77
2019-03-08T21:15:12.135Z,3.90
2019-03-08T21:17:43.152Z,3.30
2019-03-08T21:20:15.180Z,2.17
2019-03-08T21:22:46.032Z,2.40
2019-03-08T21:25:17.339Z,1.30
2019-03-08T21:27:50.025Z,3.12
2019-03-08T21:30:21.654Z,3.65
2019-03-08T21:32:52.468Z,6.58
2019-03-08T21:35:23.441Z,3.42
2019-03-08T21:37:54.299Z,3.05
2019-03-08T21:40:25.101Z,3.33
2019-03-08T21:42:55.928Z,5.28
2019-03-08T21:45:26.724Z,6.37
2019-03-08T21:47:57.875Z,5.37
2019-03-08T21:50:28.782Z,3.85
2019-03-08T21:52:59.591Z,4.85
2019-03-08T21:55:30.426Z,3.50
2019-03-08T21:58:01.269Z,1.87
2019-03-08T22:00:32.073Z,1.20
2019-03-08T22:03:02.981Z,5.20
2019-03-08T22:05:35.980Z,3.10
2019-03-08T22:08:16.445Z,3.52
2019-03-08T22:10:44.655Z,6.00
2019-03-08T22:13:15.465Z,3.72
2019-03-08T22:15:46.288Z,3.85
2019-03-08T22:18:17.122Z,5.47
2019-03-08T22:20:47.931Z,4.20
2019-03-08T22:23:18.756Z,3.83
2019-03-08T22:25:49.564Z,2.25
2019-03-08T22:28:20.421Z,3.87
2019-03-08T22:30:51.241Z,3.25
2019-03-08T22:33:22.373Z,2.02
2019-03-08T22:35:54.198Z,2.95
2019-03-08T22:38:27.240Z,2.80
2019-03-08T22:40:59.123Z,1.85
2019-03-08T22:43:29.961Z,3.60
2019-03-08T22:46:00.771Z,5.08
2019-03-08T22:48:31.616Z,6.35
2019-03-08T22:51:02.429Z,6.28
2019-03-08T22:53:33.247Z,6.47
2019-03-08T22:56:04.361Z,5.85
2019-03-08T22:58:35.155Z,6.42
2019-03-08T23:01:10.132Z,2.75
2019-03-08T23:03:42.504Z,2.92
2019-03-08T23:06:13.305Z,2.62
2019-03-08T23:08:45.722Z,2.00
2019-03-08T23:11:16.640Z,2.87
2019-03-08T23:13:47.553Z,2.92
2019-03-08T23:16:18.556Z,2.42
2019-03-08T23:18:49.376Z,2.10
2019-03-08T23:21:20.193Z,2.35
2019-03-08T23:23:51.005Z,3.60
2019-03-08T23:26:21.800Z,3.37
2019-03-08T23:29:06.640Z,3.42
2019-03-08T23:31:44.848Z,3.08
2019-03-08T23:34:15.668Z,1.25
2019-03-08T23:37:09.924Z,3.22
2019-03-08T23:39:40.735Z,2.02
2019-03-08T23:42:12.083Z,2.02
2019-03-08T23:44:44.471Z,1.40
2019-03-08T23:47:15.297Z,1.72
2019-03-08T23:49:46.129Z,1.50
2019-03-08T23:52:21.020Z,2.58
2019-03-08T23:54:51.944Z,2.15
2019-03-08T23:57:22.728Z,2.05
2019-03-08T23:59:53.749Z,1.57
